Αρχική σελίδα
METAR-TAF:

METAR-TAF

Αεροδρόμια :

Κουρασάο, Ολλανδικές Αντίλλες

γεωγραφικό πλάτος: 12-12N, γεωγραφικό μήκος: 068-58W, υψόμετρο: 9 μ

Παρών καιρός

Η αναφορά έγινε 46 λεπτά πριν, στις 21:00 UTC
Άνεμος 14 kt από Α
Θερμοκρασία 30°C
Υγρασία 70%
Πίεση 1009 hPa
Ορατότητα 10 χλμ και άνω
Λίγα νέφη σε ύψος 2200 πόδια

METAR: TNCC 242100Z 10014KT 9999 FEW022 30/24 Q1009 NOSIG

Χρόνος: 17:46 (21:46 UTC)

Πρόγνωση Καιρού

Η αναφορά έγινε 5 ώρες και 56 λεπτά πριν, στις 15:50 UTC
Η πρόγνωση ισχύει από τις 24 στις 18 UTC έως τις 25 στις 18 UTC
Άνεμος 14 kt από Α με ριπές μέχρι 24 kt
Ορατότητα 10 χλμ και άνω
Διάσπαρτα νέφη σε ύψος 2200 πόδια
Προσωρινά
από 25 στις 06 UTC έως τις 25 στις 11 UTC
Άνεμος 12 kt από Α
Προσωρινά
από 25 στις 12 UTC έως τις 25 στις 18 UTC
Αρκετά νέφη σε ύψος 1500 πόδια

TAF: TNCC 241550Z 2418/2518 10014G24KT 9999 SCT022 TEMPO 2506/2511 10012KT TEMPO 2512/2518 BKN015

Μετεωρολογικές αναφορές και προγνώσεις για περισσότερα από 4000 αεροδρόμια (δελτία METAR και TAF).

Οι διαθέσιμοι σταθμοί απεικονίζονται στο χάρτη με κίτρινες και κόκκινες κουκκίδες.

Μετακινήστε το ποντίκι πάνω από τις κουκκίδες για να δείτε το όνομα του σταθμού.

Στη συνέχεια, κάντε κλικ για να δείτε τις μετεωρολογικές αναφορές και τις προγνώσεις καιρού.

Για να αλλάξετε το χάρτη: κάντε κλικ στα πράσινα κουμπιά με τον μαύρο σταυρό για να ζουμάρετε, στο πράσινο κουμπί με την παύλα για να αφαιρέσετε το ζουμ ή στα πράσινα βέλη για να αντιπαραβάλλετε χάρτες.


METAR-TAF: